KSLK/SLK METAR and TAF weather

Enter ICAO airport designator
Station Type Date Time Source
KSLK METAR 2020/05/30 04:51 UTC NOAA

KSLK 300451Z AUTO 21011KT 10SM SCT014 BKN020 OVC030 17/15 A2975 RMK AO2 SLP064 T01670150 402830161


Station Type Date Time Source
KSLK Decoded METAR 2020/05/30 04:51 UTC NOAA

ADIRONDACK REGIONAL AIRPORT, NY, United States (KSLK) 44-24N 074-12W 498M
May 30, 2020 - 12:51 AM EDT / 2020.05.30 0451 UTC
Wind: from the SSW (210 degrees) at 13 MPH (11 KT):0
Visibility: 10 mile(s):0
Sky conditions: overcast
Temperature: 62.1 F (16.7 C)
Dew Point: 59.0 F (15.0 C)
Relative Humidity: 89%
Pressure (altimeter): 29.75 in. Hg (1007 hPa)
ob: KSLK 300451Z AUTO 21011KT 10SM SCT014 BKN020 OVC030 17/15 A2975 RMK AO2 SLP064 T01670150 402830161
cycle: 5

Station Type Date Time Source
KSLK TAF 2020/05/29 18:39 UTC NOAA

TAF KSLK 291736Z 2918/3018 21010G18KT 6SM -TSRA BR OVC020CB
TEMPO 2918/2920 VRB15G30KT 2SM +TSRA BR
FM292000 21010G18KT 4SM SHRA BR OVC020
TEMPO 2921/2923 VRB15G25KT 2SM +TSRA BR OVC020CB
FM300600 22013KT 4SM -SHRA BR BKN018
FM301600 26008KT P6SM VCSH BKN035

Example: see airport list